sensor_id;sensor_type;location;lat;lon;timestamp;P1;durP1;ratioP1;P2;durP2;ratioP2
10565;SDS011;5331;48.148;16.326;2023-09-19T00:01:39;0.88;;;0.88;;
10565;SDS011;5331;48.148;16.326;2023-09-19T00:04:08;0.80;;;0.80;;
10565;SDS011;5331;48.148;16.326;2023-09-19T00:06:35;1.17;;;1.00;;
10565;SDS011;5331;48.148;16.326;2023-09-19T00:09:02;0.70;;;0.70;;
10565;SDS011;5331;48.148;16.326;2023-09-19T00:11:29;1.17;;;0.95;;
10565;SDS011;5331;48.148;16.326;2023-09-19T00:13:57;1.00;;;0.90;;
10565;SDS011;5331;48.148;16.326;2023-09-19T00:16:24;1.17;;;0.68;;
10565;SDS011;5331;48.148;16.326;2023-09-19T00:18:52;2.42;;;0.85;;
10565;SDS011;5331;48.148;16.326;2023-09-19T00:21:20;1.20;;;0.90;;
10565;SDS011;5331;48.148;16.326;2023-09-19T00:23:47;2.45;;;0.80;;
10565;SDS011;5331;48.148;16.326;2023-09-19T00:26:14;0.80;;;0.80;;
10565;SDS011;5331;48.148;16.326;2023-09-19T00:28:43;0.80;;;0.80;;
10565;SDS011;5331;48.148;16.326;2023-09-19T00:31:10;0.80;;;0.80;;
10565;SDS011;5331;48.148;16.326;2023-09-19T00:33:38;1.05;;;0.90;;
10565;SDS011;5331;48.148;16.326;2023-09-19T00:36:05;0.95;;;0.95;;
10565;SDS011;5331;48.148;16.326;2023-09-19T00:38:33;1.45;;;0.85;;
10565;SDS011;5331;48.148;16.326;2023-09-19T00:41:00;1.60;;;1.25;;
10565;SDS011;5331;48.148;16.326;2023-09-19T00:43:28;1.23;;;0.90;;
10565;SDS011;5331;48.148;16.326;2023-09-19T00:45:59;0.70;;;0.70;;
10565;SDS011;5331;48.148;16.326;2023-09-19T00:48:28;0.90;;;0.90;;
10565;SDS011;5331;48.148;16.326;2023-09-19T00:50:55;0.80;;;0.80;;
10565;SDS011;5331;48.148;16.326;2023-09-19T00:53:25;1.45;;;0.90;;
10565;SDS011;5331;48.148;16.326;2023-09-19T00:55:53;0.93;;;0.93;;
10565;SDS011;5331;48.148;16.326;2023-09-19T00:58:21;0.80;;;0.80;;
10565;SDS011;5331;48.148;16.326;2023-09-19T01:00:48;0.95;;;0.85;;
10565;SDS011;5331;48.148;16.326;2023-09-19T01:03:16;0.70;;;0.70;;
10565;SDS011;5331;48.148;16.326;2023-09-19T01:05:43;0.60;;;0.60;;
10565;SDS011;5331;48.148;16.326;2023-09-19T01:08:10;0.80;;;0.80;;
10565;SDS011;5331;48.148;16.326;2023-09-19T01:10:37;1.83;;;0.85;;
10565;SDS011;5331;48.148;16.326;2023-09-19T01:13:13;0.95;;;0.93;;
10565;SDS011;5331;48.148;16.326;2023-09-19T01:15:49;0.88;;;0.88;;
10565;SDS011;5331;48.148;16.326;2023-09-19T01:18:21;0.82;;;0.80;;
10565;SDS011;5331;48.148;16.326;2023-09-19T01:21:02;0.80;;;0.80;;
10565;SDS011;5331;48.148;16.326;2023-09-19T01:23:52;1.13;;;1.13;;
10565;SDS011;5331;48.148;16.326;2023-09-19T01:26:39;1.58;;;1.00;;
10565;SDS011;5331;48.148;16.326;2023-09-19T01:29:31;1.38;;;0.98;;
10565;SDS011;5331;48.148;16.326;2023-09-19T01:32:06;1.10;;;1.00;;
10565;SDS011;5331;48.148;16.326;2023-09-19T01:34:44;1.00;;;1.00;;
10565;SDS011;5331;48.148;16.326;2023-09-19T01:37:13;1.08;;;1.08;;
10565;SDS011;5331;48.148;16.326;2023-09-19T01:39:44;0.93;;;0.93;;
10565;SDS011;5331;48.148;16.326;2023-09-19T01:42:18;1.10;;;1.10;;
10565;SDS011;5331;48.148;16.326;2023-09-19T01:44:57;0.90;;;0.90;;
10565;SDS011;5331;48.148;16.326;2023-09-19T01:47:32;1.10;;;1.10;;
10565;SDS011;5331;48.148;16.326;2023-09-19T01:50:02;1.02;;;1.00;;
10565;SDS011;5331;48.148;16.326;2023-09-19T01:52:38;2.13;;;1.20;;
10565;SDS011;5331;48.148;16.326;2023-09-19T01:55:12;1.50;;;1.20;;
10565;SDS011;5331;48.148;16.326;2023-09-19T01:57:45;2.17;;;1.00;;
10565;SDS011;5331;48.148;16.326;2023-09-19T02:00:18;1.70;;;1.20;;
10565;SDS011;5331;48.148;16.326;2023-09-19T02:02:50;0.90;;;0.90;;
10565;SDS011;5331;48.148;16.326;2023-09-19T02:05:23;3.67;;;1.17;;
10565;SDS011;5331;48.148;16.326;2023-09-19T02:07:52;1.30;;;1.20;;
10565;SDS011;5331;48.148;16.326;2023-09-19T02:10:20;1.00;;;1.00;;
10565;SDS011;5331;48.148;16.326;2023-09-19T02:12:48;1.48;;;1.05;;
10565;SDS011;5331;48.148;16.326;2023-09-19T02:15:16;1.02;;;1.02;;
10565;SDS011;5331;48.148;16.326;2023-09-19T02:17:43;1.05;;;1.05;;
10565;SDS011;5331;48.148;16.326;2023-09-19T02:20:12;2.63;;;1.20;;
10565;SDS011;5331;48.148;16.326;2023-09-19T02:22:40;1.05;;;1.00;;
10565;SDS011;5331;48.148;16.326;2023-09-19T02:25:08;1.92;;;1.00;;
10565;SDS011;5331;48.148;16.326;2023-09-19T02:27:35;1.90;;;1.10;;
10565;SDS011;5331;48.148;16.326;2023-09-19T02:30:02;1.23;;;1.08;;
10565;SDS011;5331;48.148;16.326;2023-09-19T02:32:31;0.70;;;0.70;;
10565;SDS011;5331;48.148;16.326;2023-09-19T02:35:01;1.30;;;1.10;;
10565;SDS011;5331;48.148;16.326;2023-09-19T02:37:30;1.83;;;1.02;;
10565;SDS011;5331;48.148;16.326;2023-09-19T02:39:58;0.90;;;0.90;;
10565;SDS011;5331;48.148;16.326;2023-09-19T02:42:26;1.15;;;1.10;;
10565;SDS011;5331;48.148;16.326;2023-09-19T02:44:52;0.90;;;0.90;;
10565;SDS011;5331;48.148;16.326;2023-09-19T02:47:19;1.00;;;1.00;;
10565;SDS011;5331;48.148;16.326;2023-09-19T02:49:46;2.05;;;1.10;;
10565;SDS011;5331;48.148;16.326;2023-09-19T02:52:13;1.02;;;1.02;;
10565;SDS011;5331;48.148;16.326;2023-09-19T02:54:42;0.93;;;0.93;;
10565;SDS011;5331;48.148;16.326;2023-09-19T02:57:10;1.17;;;1.08;;
10565;SDS011;5331;48.148;16.326;2023-09-19T02:59:39;1.10;;;1.10;;
10565;SDS011;5331;48.148;16.326;2023-09-19T03:02:07;0.90;;;0.90;;
10565;SDS011;5331;48.148;16.326;2023-09-19T03:04:34;1.63;;;1.00;;
10565;SDS011;5331;48.148;16.326;2023-09-19T03:07:01;1.17;;;1.13;;
10565;SDS011;5331;48.148;16.326;2023-09-19T03:09:29;1.15;;;1.00;;
10565;SDS011;5331;48.148;16.326;2023-09-19T03:11:57;2.42;;;0.95;;
10565;SDS011;5331;48.148;16.326;2023-09-19T03:14:24;1.23;;;1.05;;
10565;SDS011;5331;48.148;16.326;2023-09-19T03:16:55;2.05;;;1.20;;
10565;SDS011;5331;48.148;16.326;2023-09-19T03:19:22;1.17;;;1.00;;
10565;SDS011;5331;48.148;16.326;2023-09-19T03:21:48;1.00;;;1.00;;
10565;SDS011;5331;48.148;16.326;2023-09-19T03:24:15;1.00;;;1.00;;
10565;SDS011;5331;48.148;16.326;2023-09-19T03:26:42;1.50;;;1.40;;
10565;SDS011;5331;48.148;16.326;2023-09-19T03:29:11;1.23;;;1.05;;
10565;SDS011;5331;48.148;16.326;2023-09-19T03:31:39;1.38;;;1.27;;
10565;SDS011;5331;48.148;16.326;2023-09-19T03:34:06;1.92;;;1.20;;
10565;SDS011;5331;48.148;16.326;2023-09-19T03:36:33;1.48;;;1.30;;
10565;SDS011;5331;48.148;16.326;2023-09-19T03:39:00;1.30;;;1.30;;
10565;SDS011;5331;48.148;16.326;2023-09-19T03:41:26;1.30;;;1.20;;
10565;SDS011;5331;48.148;16.326;2023-09-19T03:43:53;1.55;;;1.30;;
10565;SDS011;5331;48.148;16.326;2023-09-19T03:46:22;2.33;;;1.48;;
10565;SDS011;5331;48.148;16.326;2023-09-19T03:48:50;1.73;;;1.30;;
10565;SDS011;5331;48.148;16.326;2023-09-19T03:51:16;1.88;;;1.30;;
10565;SDS011;5331;48.148;16.326;2023-09-19T03:53:43;1.27;;;1.17;;
10565;SDS011;5331;48.148;16.326;2023-09-19T03:56:10;1.90;;;1.30;;
10565;SDS011;5331;48.148;16.326;2023-09-19T03:58:37;1.67;;;1.40;;
10565;SDS011;5331;48.148;16.326;2023-09-19T04:01:04;1.90;;;1.30;;
10565;SDS011;5331;48.148;16.326;2023-09-19T04:03:34;1.40;;;1.25;;
10565;SDS011;5331;48.148;16.326;2023-09-19T04:06:11;1.27;;;1.23;;
10565;SDS011;5331;48.148;16.326;2023-09-19T04:08:38;1.10;;;1.10;;
10565;SDS011;5331;48.148;16.326;2023-09-19T04:11:05;1.38;;;1.20;;
10565;SDS011;5331;48.148;16.326;2023-09-19T04:13:32;1.73;;;1.20;;
10565;SDS011;5331;48.148;16.326;2023-09-19T04:15:59;2.95;;;1.40;;
10565;SDS011;5331;48.148;16.326;2023-09-19T04:18:26;1.33;;;1.27;;
10565;SDS011;5331;48.148;16.326;2023-09-19T04:20:55;1.90;;;1.40;;
10565;SDS011;5331;48.148;16.326;2023-09-19T04:23:22;1.92;;;1.60;;
10565;SDS011;5331;48.148;16.326;2023-09-19T04:25:48;1.33;;;1.20;;
10565;SDS011;5331;48.148;16.326;2023-09-19T04:28:16;1.30;;;1.25;;
10565;SDS011;5331;48.148;16.326;2023-09-19T04:30:43;1.75;;;1.25;;
10565;SDS011;5331;48.148;16.326;2023-09-19T04:33:10;1.52;;;1.42;;
10565;SDS011;5331;48.148;16.326;2023-09-19T04:35:39;1.52;;;1.42;;
10565;SDS011;5331;48.148;16.326;2023-09-19T04:38:08;1.73;;;1.63;;
10565;SDS011;5331;48.148;16.326;2023-09-19T04:40:36;2.22;;;1.65;;
10565;SDS011;5331;48.148;16.326;2023-09-19T04:43:04;1.60;;;1.50;;
10565;SDS011;5331;48.148;16.326;2023-09-19T04:45:32;1.80;;;1.70;;
10565;SDS011;5331;48.148;16.326;2023-09-19T04:47:59;1.75;;;1.65;;
10565;SDS011;5331;48.148;16.326;2023-09-19T04:50:27;1.60;;;1.40;;
10565;SDS011;5331;48.148;16.326;2023-09-19T04:52:54;1.70;;;1.60;;
10565;SDS011;5331;48.148;16.326;2023-09-19T04:55:23;2.05;;;1.60;;
10565;SDS011;5331;48.148;16.326;2023-09-19T04:57:50;3.35;;;1.88;;
10565;SDS011;5331;48.148;16.326;2023-09-19T05:00:19;1.70;;;1.60;;
10565;SDS011;5331;48.148;16.326;2023-09-19T05:02:49;1.60;;;1.50;;
10565;SDS011;5331;48.148;16.326;2023-09-19T05:05:16;1.75;;;1.65;;
10565;SDS011;5331;48.148;16.326;2023-09-19T05:07:44;1.70;;;1.58;;
10565;SDS011;5331;48.148;16.326;2023-09-19T05:10:12;2.13;;;1.90;;
10565;SDS011;5331;48.148;16.326;2023-09-19T05:12:40;1.75;;;1.65;;
10565;SDS011;5331;48.148;16.326;2023-09-19T05:15:08;1.80;;;1.70;;
10565;SDS011;5331;48.148;16.326;2023-09-19T05:17:35;2.30;;;1.80;;
10565;SDS011;5331;48.148;16.326;2023-09-19T05:20:03;1.98;;;1.70;;
10565;SDS011;5331;48.148;16.326;2023-09-19T05:22:40;4.07;;;1.90;;
10565;SDS011;5331;48.148;16.326;2023-09-19T05:25:08;2.90;;;2.00;;
10565;SDS011;5331;48.148;16.326;2023-09-19T05:27:35;2.40;;;2.20;;
10565;SDS011;5331;48.148;16.326;2023-09-19T05:30:04;2.50;;;2.30;;
10565;SDS011;5331;48.148;16.326;2023-09-19T05:32:32;2.50;;;2.30;;
10565;SDS011;5331;48.148;16.326;2023-09-19T05:34:59;3.15;;;2.00;;
10565;SDS011;5331;48.148;16.326;2023-09-19T05:37:26;5.28;;;2.10;;
10565;SDS011;5331;48.148;16.326;2023-09-19T05:39:53;2.35;;;1.80;;
10565;SDS011;5331;48.148;16.326;2023-09-19T05:42:19;2.92;;;2.15;;
10565;SDS011;5331;48.148;16.326;2023-09-19T05:44:46;2.05;;;1.85;;
10565;SDS011;5331;48.148;16.326;2023-09-19T05:47:15;1.77;;;1.67;;
10565;SDS011;5331;48.148;16.326;2023-09-19T05:49:42;2.53;;;1.83;;
10565;SDS011;5331;48.148;16.326;2023-09-19T05:52:09;1.90;;;1.80;;
10565;SDS011;5331;48.148;16.326;2023-09-19T05:54:36;2.05;;;1.85;;
10565;SDS011;5331;48.148;16.326;2023-09-19T05:57:03;1.83;;;1.73;;
10565;SDS011;5331;48.148;16.326;2023-09-19T05:59:30;2.45;;;2.00;;
10565;SDS011;5331;48.148;16.326;2023-09-19T06:01:58;2.35;;;1.85;;
10565;SDS011;5331;48.148;16.326;2023-09-19T06:04:27;3.97;;;2.35;;
10565;SDS011;5331;48.148;16.326;2023-09-19T06:06:55;1.95;;;1.70;;
10565;SDS011;5331;48.148;16.326;2023-09-19T06:09:23;2.25;;;2.00;;
10565;SDS011;5331;48.148;16.326;2023-09-19T06:11:52;1.83;;;1.70;;
10565;SDS011;5331;48.148;16.326;2023-09-19T06:14:20;2.53;;;1.75;;
10565;SDS011;5331;48.148;16.326;2023-09-19T06:16:49;2.38;;;2.17;;
10565;SDS011;5331;48.148;16.326;2023-09-19T06:19:19;2.28;;;2.08;;
10565;SDS011;5331;48.148;16.326;2023-09-19T06:21:49;3.13;;;1.80;;
10565;SDS011;5331;48.148;16.326;2023-09-19T06:24:16;1.85;;;1.65;;
10565;SDS011;5331;48.148;16.326;2023-09-19T06:26:44;2.00;;;1.80;;
10565;SDS011;5331;48.148;16.326;2023-09-19T06:29:12;2.15;;;1.85;;
10565;SDS011;5331;48.148;16.326;2023-09-19T06:31:39;2.00;;;1.70;;
10565;SDS011;5331;48.148;16.326;2023-09-19T06:34:06;1.80;;;1.70;;
10565;SDS011;5331;48.148;16.326;2023-09-19T06:36:33;2.28;;;1.95;;
10565;SDS011;5331;48.148;16.326;2023-09-19T06:39:02;2.35;;;1.85;;
10565;SDS011;5331;48.148;16.326;2023-09-19T06:41:31;2.03;;;1.67;;
10565;SDS011;5331;48.148;16.326;2023-09-19T06:43:58;1.85;;;1.60;;
10565;SDS011;5331;48.148;16.326;2023-09-19T06:46:25;2.38;;;1.90;;
10565;SDS011;5331;48.148;16.326;2023-09-19T06:48:57;1.50;;;1.40;;
10565;SDS011;5331;48.148;16.326;2023-09-19T06:51:24;1.90;;;1.80;;
10565;SDS011;5331;48.148;16.326;2023-09-19T06:53:51;1.85;;;1.75;;
10565;SDS011;5331;48.148;16.326;2023-09-19T06:56:21;1.83;;;1.73;;
10565;SDS011;5331;48.148;16.326;2023-09-19T06:58:49;2.47;;;1.60;;
10565;SDS011;5331;48.148;16.326;2023-09-19T07:01:16;2.40;;;1.90;;
10565;SDS011;5331;48.148;16.326;2023-09-19T07:03:44;2.03;;;1.83;;
10565;SDS011;5331;48.148;16.326;2023-09-19T07:06:11;2.65;;;1.70;;
10565;SDS011;5331;48.148;16.326;2023-09-19T07:08:38;2.30;;;1.80;;
10565;SDS011;5331;48.148;16.326;2023-09-19T07:11:05;2.03;;;1.70;;
10565;SDS011;5331;48.148;16.326;2023-09-19T07:13:34;2.40;;;1.90;;
10565;SDS011;5331;48.148;16.326;2023-09-19T07:16:02;3.72;;;1.73;;
10565;SDS011;5331;48.148;16.326;2023-09-19T07:18:29;2.78;;;1.70;;
10565;SDS011;5331;48.148;16.326;2023-09-19T07:20:57;1.67;;;1.58;;
10565;SDS011;5331;48.148;16.326;2023-09-19T07:23:29;1.85;;;1.75;;
10565;SDS011;5331;48.148;16.326;2023-09-19T07:25:59;1.70;;;1.60;;
10565;SDS011;5331;48.148;16.326;2023-09-19T07:28:26;1.83;;;1.63;;
10565;SDS011;5331;48.148;16.326;2023-09-19T07:30:56;2.72;;;1.88;;
10565;SDS011;5331;48.148;16.326;2023-09-19T07:33:23;4.75;;;3.50;;
10565;SDS011;5331;48.148;16.326;2023-09-19T07:35:51;1.95;;;1.80;;
10565;SDS011;5331;48.148;16.326;2023-09-19T07:38:18;2.03;;;1.73;;
10565;SDS011;5331;48.148;16.326;2023-09-19T07:40:45;1.88;;;1.77;;
10565;SDS011;5331;48.148;16.326;2023-09-19T07:43:12;1.70;;;1.60;;
10565;SDS011;5331;48.148;16.326;2023-09-19T07:45:39;1.80;;;1.70;;
10565;SDS011;5331;48.148;16.326;2023-09-19T07:48:07;1.83;;;1.63;;
10565;SDS011;5331;48.148;16.326;2023-09-19T07:50:39;2.45;;;2.00;;
10565;SDS011;5331;48.148;16.326;2023-09-19T07:53:08;2.50;;;1.70;;
10565;SDS011;5331;48.148;16.326;2023-09-19T07:55:38;2.63;;;1.60;;
10565;SDS011;5331;48.148;16.326;2023-09-19T07:58:06;2.08;;;1.85;;
10565;SDS011;5331;48.148;16.326;2023-09-19T08:00:33;2.17;;;1.90;;
10565;SDS011;5331;48.148;16.326;2023-09-19T08:03:00;1.98;;;1.83;;
10565;SDS011;5331;48.148;16.326;2023-09-19T08:05:30;2.72;;;1.80;;
10565;SDS011;5331;48.148;16.326;2023-09-19T08:07:58;2.10;;;1.90;;
10565;SDS011;5331;48.148;16.326;2023-09-19T08:10:28;3.05;;;1.80;;
10565;SDS011;5331;48.148;16.326;2023-09-19T08:13:00;2.13;;;1.75;;
10565;SDS011;5331;48.148;16.326;2023-09-19T08:15:27;2.42;;;1.80;;
10565;SDS011;5331;48.148;16.326;2023-09-19T08:17:54;2.95;;;1.80;;
10565;SDS011;5331;48.148;16.326;2023-09-19T08:20:21;2.83;;;1.63;;
10565;SDS011;5331;48.148;16.326;2023-09-19T08:22:49;2.60;;;1.77;;
10565;SDS011;5331;48.148;16.326;2023-09-19T08:25:19;1.80;;;1.70;;
10565;SDS011;5331;48.148;16.326;2023-09-19T08:27:47;1.80;;;1.60;;
10565;SDS011;5331;48.148;16.326;2023-09-19T08:30:14;1.80;;;1.70;;
10565;SDS011;5331;48.148;16.326;2023-09-19T08:32:43;2.45;;;1.70;;
10565;SDS011;5331;48.148;16.326;2023-09-19T08:35:11;1.60;;;1.50;;
10565;SDS011;5331;48.148;16.326;2023-09-19T08:37:38;2.03;;;1.63;;
10565;SDS011;5331;48.148;16.326;2023-09-19T08:40:07;2.03;;;1.70;;
10565;SDS011;5331;48.148;16.326;2023-09-19T08:42:47;3.80;;;1.83;;
10565;SDS011;5331;48.148;16.326;2023-09-19T08:45:15;2.38;;;1.88;;
10565;SDS011;5331;48.148;16.326;2023-09-19T08:47:45;3.60;;;2.08;;
10565;SDS011;5331;48.148;16.326;2023-09-19T08:50:16;2.78;;;1.65;;
10565;SDS011;5331;48.148;16.326;2023-09-19T08:52:46;1.98;;;1.75;;
10565;SDS011;5331;48.148;16.326;2023-09-19T08:55:17;2.00;;;1.80;;
10565;SDS011;5331;48.148;16.326;2023-09-19T08:57:47;1.70;;;1.60;;
10565;SDS011;5331;48.148;16.326;2023-09-19T09:00:16;2.53;;;1.90;;
10565;SDS011;5331;48.148;16.326;2023-09-19T09:02:45;1.70;;;1.60;;
10565;SDS011;5331;48.148;16.326;2023-09-19T09:05:14;2.65;;;1.73;;
10565;SDS011;5331;48.148;16.326;2023-09-19T09:07:47;2.33;;;1.80;;
10565;SDS011;5331;48.148;16.326;2023-09-19T09:10:18;2.40;;;1.90;;
10565;SDS011;5331;48.148;16.326;2023-09-19T09:12:47;1.70;;;1.60;;
10565;SDS011;5331;48.148;16.326;2023-09-19T09:15:16;2.35;;;1.60;;
10565;SDS011;5331;48.148;16.326;2023-09-19T09:17:48;3.08;;;1.98;;
10565;SDS011;5331;48.148;16.326;2023-09-19T09:20:16;2.10;;;1.95;;
10565;SDS011;5331;48.148;16.326;2023-09-19T09:22:50;2.08;;;1.80;;
10565;SDS011;5331;48.148;16.326;2023-09-19T09:25:20;2.65;;;2.45;;
10565;SDS011;5331;48.148;16.326;2023-09-19T09:27:58;1.70;;;1.60;;
10565;SDS011;5331;48.148;16.326;2023-09-19T09:30:33;3.33;;;1.80;;
10565;SDS011;5331;48.148;16.326;2023-09-19T09:33:08;1.75;;;1.65;;
10565;SDS011;5331;48.148;16.326;2023-09-19T09:35:36;2.00;;;1.85;;
10565;SDS011;5331;48.148;16.326;2023-09-19T09:38:06;3.10;;;1.80;;
10565;SDS011;5331;48.148;16.326;2023-09-19T09:40:47;3.10;;;1.90;;
10565;SDS011;5331;48.148;16.326;2023-09-19T09:43:25;2.35;;;1.60;;
10565;SDS011;5331;48.148;16.326;2023-09-19T09:46:07;1.85;;;1.75;;
10565;SDS011;5331;48.148;16.326;2023-09-19T09:48:57;1.80;;;1.70;;
10565;SDS011;5331;48.148;16.326;2023-09-19T09:51:39;2.03;;;1.75;;
10565;SDS011;5331;48.148;16.326;2023-09-19T09:54:10;2.45;;;1.70;;
10565;SDS011;5331;48.148;16.326;2023-09-19T09:56:52;1.80;;;1.70;;
10565;SDS011;5331;48.148;16.326;2023-09-19T10:02:11;1.60;;;1.50;;
10565;SDS011;5331;48.148;16.326;2023-09-19T10:04:39;1.83;;;1.73;;
10565;SDS011;5331;48.148;16.326;2023-09-19T10:07:24;2.55;;;1.90;;
10565;SDS011;5331;48.148;16.326;2023-09-19T10:09:52;2.10;;;1.52;;
10565;SDS011;5331;48.148;16.326;2023-09-19T10:12:25;1.70;;;1.60;;
10565;SDS011;5331;48.148;16.326;2023-09-19T10:14:54;1.90;;;1.80;;
10565;SDS011;5331;48.148;16.326;2023-09-19T10:17:24;1.88;;;1.77;;
10565;SDS011;5331;48.148;16.326;2023-09-19T10:19:53;1.60;;;1.50;;
10565;SDS011;5331;48.148;16.326;2023-09-19T10:22:22;1.77;;;1.67;;
10565;SDS011;5331;48.148;16.326;2023-09-19T10:24:51;1.98;;;1.88;;
10565;SDS011;5331;48.148;16.326;2023-09-19T10:27:20;1.80;;;1.70;;
10565;SDS011;5331;48.148;16.326;2023-09-19T10:29:52;2.28;;;1.80;;
10565;SDS011;5331;48.148;16.326;2023-09-19T10:32:22;1.50;;;1.50;;
10565;SDS011;5331;48.148;16.326;2023-09-19T10:34:49;1.98;;;1.75;;
10565;SDS011;5331;48.148;16.326;2023-09-19T10:37:21;1.73;;;1.63;;
10565;SDS011;5331;48.148;16.326;2023-09-19T10:39:51;1.95;;;1.85;;
10565;SDS011;5331;48.148;16.326;2023-09-19T10:42:21;1.80;;;1.70;;
10565;SDS011;5331;48.148;16.326;2023-09-19T10:44:55;1.73;;;1.63;;
10565;SDS011;5331;48.148;16.326;2023-09-19T10:47:25;1.90;;;1.80;;
10565;SDS011;5331;48.148;16.326;2023-09-19T10:49:52;1.73;;;1.63;;
10565;SDS011;5331;48.148;16.326;2023-09-19T10:52:20;1.60;;;1.50;;
10565;SDS011;5331;48.148;16.326;2023-09-19T10:54:50;1.70;;;1.60;;
10565;SDS011;5331;48.148;16.326;2023-09-19T10:57:22;1.80;;;1.70;;
10565;SDS011;5331;48.148;16.326;2023-09-19T11:00:03;1.80;;;1.60;;
10565;SDS011;5331;48.148;16.326;2023-09-19T11:11:48;1.67;;;1.50;;
10565;SDS011;5331;48.148;16.326;2023-09-19T11:25:50;1.92;;;1.70;;
10565;SDS011;5331;48.148;16.326;2023-09-19T11:28:31;1.65;;;1.55;;
10565;SDS011;5331;48.148;16.326;2023-09-19T11:31:00;1.60;;;1.50;;
10565;SDS011;5331;48.148;16.326;2023-09-19T11:34:39;1.70;;;1.60;;
10565;SDS011;5331;48.148;16.326;2023-09-19T11:40:31;1.63;;;1.52;;
10565;SDS011;5331;48.148;16.326;2023-09-19T11:43:00;1.70;;;1.60;;
10565;SDS011;5331;48.148;16.326;2023-09-19T11:46:08;1.92;;;1.50;;
10565;SDS011;5331;48.148;16.326;2023-09-19T11:48:38;1.80;;;1.70;;
10565;SDS011;5331;48.148;16.326;2023-09-19T11:51:15;1.75;;;1.65;;
10565;SDS011;5331;48.148;16.326;2023-09-19T11:53:49;2.03;;;1.80;;
10565;SDS011;5331;48.148;16.326;2023-09-19T11:56:18;2.50;;;1.95;;
10565;SDS011;5331;48.148;16.326;2023-09-19T11:58:48;3.05;;;1.70;;
10565;SDS011;5331;48.148;16.326;2023-09-19T12:01:21;1.60;;;1.50;;
10565;SDS011;5331;48.148;16.326;2023-09-19T12:03:52;2.20;;;1.60;;
10565;SDS011;5331;48.148;16.326;2023-09-19T12:06:23;1.67;;;1.48;;
10565;SDS011;5331;48.148;16.326;2023-09-19T12:08:51;1.45;;;1.45;;
10565;SDS011;5331;48.148;16.326;2023-09-19T12:11:21;1.90;;;1.70;;
10565;SDS011;5331;48.148;16.326;2023-09-19T12:13:49;1.50;;;1.40;;
10565;SDS011;5331;48.148;16.326;2023-09-19T12:16:19;1.60;;;1.50;;
10565;SDS011;5331;48.148;16.326;2023-09-19T12:18:48;1.45;;;1.40;;
10565;SDS011;5331;48.148;16.326;2023-09-19T12:21:27;1.90;;;1.60;;
10565;SDS011;5331;48.148;16.326;2023-09-19T12:24:06;1.65;;;1.55;;
10565;SDS011;5331;48.148;16.326;2023-09-19T12:26:41;1.70;;;1.60;;
10565;SDS011;5331;48.148;16.326;2023-09-19T12:29:19;1.60;;;1.50;;
10565;SDS011;5331;48.148;16.326;2023-09-19T12:31:48;2.65;;;1.50;;
10565;SDS011;5331;48.148;16.326;2023-09-19T12:34:21;1.65;;;1.50;;
10565;SDS011;5331;48.148;16.326;2023-09-19T12:37:04;1.67;;;1.58;;
10565;SDS011;5331;48.148;16.326;2023-09-19T12:39:37;1.50;;;1.40;;
10565;SDS011;5331;48.148;16.326;2023-09-19T12:42:06;1.65;;;1.55;;
10565;SDS011;5331;48.148;16.326;2023-09-19T12:44:35;3.08;;;1.65;;
10565;SDS011;5331;48.148;16.326;2023-09-19T12:47:10;1.65;;;1.58;;
10565;SDS011;5331;48.148;16.326;2023-09-19T12:52:39;1.73;;;1.60;;
10565;SDS011;5331;48.148;16.326;2023-09-19T12:55:07;1.65;;;1.55;;
10565;SDS011;5331;48.148;16.326;2023-09-19T12:57:54;1.80;;;1.70;;
10565;SDS011;5331;48.148;16.326;2023-09-19T13:00:31;1.50;;;1.40;;
10565;SDS011;5331;48.148;16.326;2023-09-19T13:03:16;1.55;;;1.45;;
10565;SDS011;5331;48.148;16.326;2023-09-19T13:05:50;1.50;;;1.40;;
10565;SDS011;5331;48.148;16.326;2023-09-19T13:08:21;1.55;;;1.33;;
10565;SDS011;5331;48.148;16.326;2023-09-19T13:11:03;1.70;;;1.60;;
10565;SDS011;5331;48.148;16.326;2023-09-19T13:13:35;1.67;;;1.30;;
10565;SDS011;5331;48.148;16.326;2023-09-19T13:16:03;1.77;;;1.55;;
10565;SDS011;5331;48.148;16.326;2023-09-19T13:18:41;1.85;;;1.30;;
10565;SDS011;5331;48.148;16.326;2023-09-19T13:21:12;3.60;;;1.50;;
10565;SDS011;5331;48.148;16.326;2023-09-19T13:23:49;1.50;;;1.30;;
10565;SDS011;5331;48.148;16.326;2023-09-19T13:26:17;1.52;;;1.50;;
10565;SDS011;5331;48.148;16.326;2023-09-19T13:28:44;1.45;;;1.30;;
10565;SDS011;5331;48.148;16.326;2023-09-19T13:31:13;1.20;;;1.20;;
10565;SDS011;5331;48.148;16.326;2023-09-19T13:33:43;1.58;;;1.48;;
10565;SDS011;5331;48.148;16.326;2023-09-19T13:36:11;2.05;;;1.40;;
10565;SDS011;5331;48.148;16.326;2023-09-19T13:38:39;1.50;;;1.40;;
10565;SDS011;5331;48.148;16.326;2023-09-19T13:41:09;1.52;;;1.42;;
10565;SDS011;5331;48.148;16.326;2023-09-19T13:43:36;1.30;;;1.30;;
10565;SDS011;5331;48.148;16.326;2023-09-19T13:46:04;2.13;;;1.40;;
10565;SDS011;5331;48.148;16.326;2023-09-19T13:48:32;1.60;;;1.50;;
10565;SDS011;5331;48.148;16.326;2023-09-19T13:51:01;1.20;;;1.20;;
10565;SDS011;5331;48.148;16.326;2023-09-19T13:53:29;1.40;;;1.30;;
10565;SDS011;5331;48.148;16.326;2023-09-19T13:55:56;1.40;;;1.30;;
10565;SDS011;5331;48.148;16.326;2023-09-19T13:58:25;2.03;;;1.40;;
10565;SDS011;5331;48.148;16.326;2023-09-19T14:00:52;1.10;;;1.10;;
10565;SDS011;5331;48.148;16.326;2023-09-19T14:03:23;1.58;;;1.48;;
10565;SDS011;5331;48.148;16.326;2023-09-19T14:05:53;1.30;;;1.20;;
10565;SDS011;5331;48.148;16.326;2023-09-19T14:08:20;1.42;;;1.25;;
10565;SDS011;5331;48.148;16.326;2023-09-19T14:10:48;3.65;;;1.40;;
10565;SDS011;5331;48.148;16.326;2023-09-19T14:13:15;1.40;;;1.40;;
10565;SDS011;5331;48.148;16.326;2023-09-19T14:15:44;1.40;;;1.35;;
10565;SDS011;5331;48.148;16.326;2023-09-19T14:18:10;1.40;;;1.30;;
10565;SDS011;5331;48.148;16.326;2023-09-19T14:20:38;1.80;;;1.58;;
10565;SDS011;5331;48.148;16.326;2023-09-19T14:23:06;1.63;;;1.50;;
10565;SDS011;5331;48.148;16.326;2023-09-19T14:25:34;1.33;;;1.27;;
10565;SDS011;5331;48.148;16.326;2023-09-19T14:28:01;2.47;;;1.83;;
10565;SDS011;5331;48.148;16.326;2023-09-19T14:30:28;1.73;;;1.30;;
10565;SDS011;5331;48.148;16.326;2023-09-19T14:32:57;1.42;;;1.35;;
10565;SDS011;5331;48.148;16.326;2023-09-19T14:35:24;1.58;;;1.48;;
10565;SDS011;5331;48.148;16.326;2023-09-19T14:37:51;1.70;;;1.42;;
10565;SDS011;5331;48.148;16.326;2023-09-19T14:40:19;1.50;;;1.40;;
10565;SDS011;5331;48.148;16.326;2023-09-19T14:42:47;1.42;;;1.33;;
10565;SDS011;5331;48.148;16.326;2023-09-19T14:45:14;1.42;;;1.40;;
10565;SDS011;5331;48.148;16.326;2023-09-19T14:47:43;1.70;;;1.38;;
10565;SDS011;5331;48.148;16.326;2023-09-19T14:50:13;1.20;;;1.20;;
10565;SDS011;5331;48.148;16.326;2023-09-19T14:52:40;1.30;;;1.30;;
10565;SDS011;5331;48.148;16.326;2023-09-19T14:55:07;2.15;;;1.50;;
10565;SDS011;5331;48.148;16.326;2023-09-19T14:57:40;1.63;;;1.30;;
10565;SDS011;5331;48.148;16.326;2023-09-19T15:00:11;1.65;;;1.55;;
10565;SDS011;5331;48.148;16.326;2023-09-19T15:02:39;1.67;;;1.48;;
10565;SDS011;5331;48.148;16.326;2023-09-19T15:05:07;1.33;;;1.30;;
10565;SDS011;5331;48.148;16.326;2023-09-19T15:07:38;1.48;;;1.38;;
10565;SDS011;5331;48.148;16.326;2023-09-19T15:10:06;2.95;;;1.50;;
10565;SDS011;5331;48.148;16.326;2023-09-19T15:12:35;1.50;;;1.40;;
10565;SDS011;5331;48.148;16.326;2023-09-19T15:15:04;1.55;;;1.45;;
10565;SDS011;5331;48.148;16.326;2023-09-19T15:17:35;2.38;;;1.40;;
10565;SDS011;5331;48.148;16.326;2023-09-19T15:20:11;1.40;;;1.40;;
10565;SDS011;5331;48.148;16.326;2023-09-19T15:22:43;2.20;;;1.52;;
10565;SDS011;5331;48.148;16.326;2023-09-19T15:25:13;1.60;;;1.40;;
10565;SDS011;5331;48.148;16.326;2023-09-19T15:27:44;1.63;;;1.52;;
10565;SDS011;5331;48.148;16.326;2023-09-19T15:30:13;1.50;;;1.40;;
10565;SDS011;5331;48.148;16.326;2023-09-19T15:32:42;2.25;;;1.30;;
10565;SDS011;5331;48.148;16.326;2023-09-19T15:35:10;1.77;;;1.20;;